PAYA

Yakutat Airport

Yakutat, Alaska, USA
PAYA 192004Z 1920/2018 12015KT 5SM -RA BR SCT007 OVC010 TEMPO 1920/1924 13015G25KT 2SM -RA BR OVC007 FM200000 10012KT 3SM -RA BR BKN007 OVC015 WS015/15035KT AMD LTD TO CLD VIS AND WIND
Issued Valid From Valid To
Nov-19 @ 20:04 UTC
(2 hours ago)
Nov-19 @ 20:00 UTC
(2 hours ago)
Nov-20 @ 18:00 UTC
(in 20 hours)
Nov-19 @ 20:00 to Nov-20 @ 00:00
PAYA 192004Z 1920/2018 12015KT 5SM -RA BR SCT007 OVC010
Wind Visibility Clouds Conditions
120° at 15 knots 5 miles
  • Scattered at 700' AGL
  • Overcast at 1,000' AGL
  • Light Rain
  • Mist
Temporary Nov-19 @ 20:00 to Nov-20 @ 00:00
TEMPO 1920/1924 13015G25KT 2SM -RA BR OVC007
Wind Visibility Clouds Conditions
130° at 15 knots
 Gusting to 25 knots
2 miles
  • Overcast at 700' AGL
  • Light Rain
  • Mist
From Nov-20 @ 00:00 to Nov-20 @ 18:00
FM200000 10012KT 3SM -RA BR BKN007 OVC015 WS015/15035KT AMD LTD TO CLD VIS AND WIND
Wind Visibility Clouds Conditions
100° at 12 knots
 Wind shear 1,500' AGL from 150° at 35 knots
3 miles
  • Broken at 700' AGL
  • Overcast at 1,500' AGL
  • Light Rain
  • Mist
PAYA 192004Z 1920/2018 12015KT 5SM -RA BR SCT007 OVC010 TEMPO 1920/1924 13015G25KT 2SM -RA BR OVC007 FM200000 10012KT 3SM -RA BR BKN007 OVC015 WS015/15035KT AMD LTD TO CLD VIS AND WIND
Issued Nov-19 @ 20:04 UTC
(2 hours ago)
Valid From Nov-19 @ 20:00 UTC
(2 hours ago)
Valid To Nov-20 @ 18:00 UTC
(in 20 hours)
Nov-19 @ 20:00 - Nov-20 @ 00:00
Wind Visibility
120° at 15 knots 5 miles
Clouds
  • Scattered at 700' AGL
  • Overcast at 1,000' AGL
Conditions
  • Light Rain
  • Mist
Temporary Nov-19 @ 20:00 - Nov-20 @ 00:00
Wind Visibility
130° at 15 knots
 Gusting to 25 knots
2 miles
Clouds
  • Overcast at 700' AGL
Conditions
  • Light Rain
  • Mist
From Nov-20 @ 00:00 - Nov-20 @ 18:00
Wind Visibility
100° at 12 knots 3 miles
Clouds
  • Broken at 700' AGL
  • Overcast at 1,500' AGL
Conditions
  • Light Rain
  • Mist